Time;durP1;ratioP1;P1;durP2;ratioP2;P2;SDS_P1;SDS_P2;PMS_P1;PMS_P2;Temp;Humidity;BMP_temperature;BMP_pressure;BME280_temperature;BME280_humidity;BME280_pressure;Samples;Min_cycle;Max_cycle;Signal;HPM_P1;HPM_P2
2023/09/10 00:01:41;;;;;;;16.05;10.20;;;15.30;99.90;;;;;;5102421;27;20058;-87
2023/09/10 00:04:06;;;;;;;16.45;10.75;;;15.30;99.90;;;;;;5106437;28;20035;-86
2023/09/10 00:06:32;;;;;;;14.45;10.52;;;15.20;99.90;;;;;;5101982;27;20087;-86
2023/09/10 00:08:58;;;;;;;15.55;10.63;;;15.20;99.90;;;;;;5111836;28;20035;-87
2023/09/10 00:11:25;;;;;;;13.70;10.63;;;15.20;99.90;;;;;;5097398;27;20031;-87
2023/09/10 00:13:51;;;;;;;15.48;10.43;;;15.10;99.90;;;;;;5088021;27;20383;-87
2023/09/10 00:16:17;;;;;;;12.52;9.77;;;15.10;99.90;;;;;;5091139;28;20015;-87
2023/09/10 00:18:42;;;;;;;12.65;9.80;;;15.00;99.90;;;;;;5102199;27;20089;-87
2023/09/10 00:21:08;;;;;;;13.45;10.15;;;15.00;99.90;;;;;;5100334;28;20059;-87
2023/09/10 00:23:34;;;;;;;13.52;10.95;;;15.00;99.90;;;;;;5109667;27;20055;-86
2023/09/10 00:26:00;;;;;;;14.95;10.40;;;14.90;99.90;;;;;;5110182;28;20058;-87
2023/09/10 00:28:25;;;;;;;18.85;10.35;;;14.90;99.90;;;;;;5088626;28;20637;-87
2023/09/10 00:30:52;;;;;;;12.85;9.73;;;14.90;99.90;;;;;;5088132;27;20038;-87
2023/09/10 00:33:18;;;;;;;13.23;9.35;;;15.00;99.90;;;;;;5106468;28;20043;-87
2023/09/10 00:35:44;;;;;;;14.10;9.60;;;15.00;99.90;;;;;;5106046;27;20513;-87
2023/09/10 00:38:09;;;;;;;11.70;9.75;;;15.00;99.90;;;;;;5107915;28;20421;-88
2023/09/10 00:40:35;;;;;;;26.33;10.18;;;15.00;99.90;;;;;;5108546;27;20030;-87
2023/09/10 00:43:01;;;;;;;15.48;10.68;;;14.90;99.90;;;;;;5083265;28;20072;-87
2023/09/10 00:45:27;;;;;;;16.65;10.25;;;14.90;99.90;;;;;;5093097;27;20494;-88
2023/09/10 00:47:53;;;;;;;11.32;9.23;;;14.90;99.90;;;;;;5104219;28;20098;-87
2023/09/10 00:50:20;;;;;;;12.32;9.80;;;14.80;99.90;;;;;;5105881;28;20471;-87
2023/09/10 00:52:49;;;;;;;14.05;10.15;;;14.80;99.90;;;;;;5103020;28;20027;-86
2023/09/10 00:55:16;;;;;;;15.40;10.23;;;14.80;99.90;;;;;;5082979;28;20038;-87
2023/09/10 00:57:43;;;;;;;14.18;10.13;;;14.70;99.90;;;;;;5090006;27;20351;-87
2023/09/10 01:00:11;;;;;;;13.68;10.18;;;14.70;99.90;;;;;;5118013;27;20478;-88
2023/09/10 01:02:43;;;;;;;16.90;9.65;;;14.80;99.90;;;;;;5099361;28;20027;-89
2023/09/10 01:05:11;;;;;;;12.20;8.88;;;14.80;99.90;;;;;;5107270;28;20072;-87
2023/09/10 01:07:37;;;;;;;14.70;10.30;;;14.80;99.90;;;;;;5104372;28;20541;-87
2023/09/10 01:10:03;;;;;;;13.43;9.93;;;14.80;99.90;;;;;;5102238;27;20072;-87
2023/09/10 01:12:58;;;;;;;15.95;9.23;;;14.80;99.90;;;;;;5102341;27;20023;-87
2023/09/10 01:15:34;;;;;;;12.80;9.40;;;14.70;99.90;;;;;;5104325;28;20152;-87
2023/09/10 01:18:26;;;;;;;11.52;9.35;;;14.70;99.90;;;;;;5107304;28;20496;-87
2023/09/10 01:21:29;;;;;;;12.63;10.07;;;14.70;99.90;;;;;;5083917;27;20479;-87
2023/09/10 01:24:19;;;;;;;11.27;9.38;;;14.70;99.90;;;;;;5088486;27;20035;-87
2023/09/10 01:26:57;;;;;;;15.68;10.55;;;14.70;99.90;;;;;;5085252;28;20028;-87
2023/09/10 01:29:23;;;;;;;15.27;11.40;;;14.60;99.90;;;;;;5107949;27;20062;-88
2023/09/10 01:31:53;;;;;;;13.55;10.80;;;14.60;99.90;;;;;;5101616;27;20031;-87
2023/09/10 01:34:24;;;;;;;13.00;10.50;;;14.70;99.90;;;;;;5105380;28;20035;-87
2023/09/10 01:37:12;;;;;;;12.68;10.70;;;14.70;99.90;;;;;;5101756;28;20479;-88
2023/09/10 01:39:41;;;;;;;16.35;10.90;;;14.70;99.90;;;;;;5052615;28;20817;-87
2023/09/10 01:42:08;;;;;;;15.27;11.07;;;14.80;99.90;;;;;;5088863;27;20034;-87
2023/09/10 01:44:35;;;;;;;15.80;10.75;;;14.70;99.90;;;;;;5101350;27;20027;-87
2023/09/10 01:47:02;;;;;;;14.90;11.30;;;14.70;99.90;;;;;;5098272;27;20039;-86
2023/09/10 01:49:28;;;;;;;15.82;11.73;;;14.70;99.90;;;;;;5092092;27;20042;-86
2023/09/10 01:51:54;;;;;;;14.02;11.52;;;14.70;99.90;;;;;;5109394;27;20032;-86
2023/09/10 01:54:20;;;;;;;15.18;12.27;;;14.60;99.90;;;;;;5103588;28;20375;-87
2023/09/10 01:56:45;;;;;;;13.43;11.30;;;14.60;99.90;;;;;;5085174;27;20116;-87
2023/09/10 01:59:11;;;;;;;18.98;13.30;;;14.60;99.90;;;;;;5089112;28;20031;-88
2023/09/10 02:01:37;;;;;;;19.67;13.07;;;14.50;99.90;;;;;;5106533;27;20029;-87
2023/09/10 02:04:03;;;;;;;16.45;12.57;;;14.50;99.90;;;;;;5101178;27;20472;-87
2023/09/10 02:06:28;;;;;;;15.20;12.57;;;14.50;99.90;;;;;;5101096;27;20019;-88
2023/09/10 02:08:54;;;;;;;16.08;12.77;;;14.40;99.90;;;;;;5101036;27;20084;-87
2023/09/10 02:11:20;;;;;;;17.42;13.80;;;14.40;99.90;;;;;;5088124;28;20035;-87
2023/09/10 02:13:46;;;;;;;17.02;13.30;;;14.40;99.90;;;;;;5092829;27;20057;-88
2023/09/10 02:16:12;;;;;;;18.48;13.68;;;14.30;99.90;;;;;;5100818;27;20067;-88
2023/09/10 02:18:38;;;;;;;19.85;14.30;;;14.40;99.90;;;;;;5093101;28;20118;-88
2023/09/10 02:21:11;;;;;;;14.73;13.18;;;14.30;99.90;;;;;;5091654;27;20023;-88
2023/09/10 02:23:42;;;;;;;20.63;14.20;;;14.30;99.90;;;;;;5094187;27;20042;-88
2023/09/10 02:26:08;;;;;;;19.75;14.30;;;14.40;99.90;;;;;;5101504;28;20107;-88
2023/09/10 02:28:34;;;;;;;19.48;14.25;;;14.30;99.90;;;;;;5088443;27;20070;-88
2023/09/10 02:31:06;;;;;;;21.15;15.50;;;14.40;99.90;;;;;;5104054;27;20099;-88
2023/09/10 02:33:33;;;;;;;21.92;13.63;;;14.30;99.90;;;;;;5095309;27;20023;-88
2023/09/10 02:35:58;;;;;;;17.42;14.20;;;14.30;99.90;;;;;;5104831;27;20053;-88
2023/09/10 02:38:31;;;;;;;19.52;15.48;;;14.20;99.90;;;;;;5099514;27;20035;-89
2023/09/10 02:40:58;;;;;;;22.92;15.70;;;14.20;99.90;;;;;;5098724;27;20026;-87
2023/09/10 02:43:23;;;;;;;26.70;15.15;;;14.20;99.90;;;;;;5096246;27;20023;-87
2023/09/10 02:45:50;;;;;;;21.23;16.02;;;14.20;99.90;;;;;;5101031;27;20047;-88
2023/09/10 02:48:16;;;;;;;21.52;15.07;;;14.20;99.90;;;;;;5090808;27;20023;-88
2023/09/10 02:50:41;;;;;;;19.80;15.32;;;14.10;99.90;;;;;;5103579;28;20024;-88
2023/09/10 02:53:07;;;;;;;20.38;14.82;;;14.10;99.90;;;;;;5087613;27;20066;-88
2023/09/10 02:55:33;;;;;;;20.33;15.30;;;14.00;99.90;;;;;;5099887;27;20113;-88
2023/09/10 02:57:59;;;;;;;21.77;15.07;;;14.00;99.90;;;;;;5126200;27;20049;-87
2023/09/10 03:00:25;;;;;;;18.70;15.05;;;13.90;99.90;;;;;;5101234;28;20027;-88
2023/09/10 03:02:55;;;;;;;19.05;15.25;;;13.90;99.90;;;;;;5095562;27;20019;-87
2023/09/10 03:05:24;;;;;;;18.85;14.90;;;13.80;99.90;;;;;;5101954;28;20028;-87
2023/09/10 03:07:52;;;;;;;19.63;16.15;;;13.80;99.90;;;;;;5099562;27;20079;-87
2023/09/10 03:10:18;;;;;;;22.08;15.07;;;13.80;99.90;;;;;;5090520;27;20072;-87
2023/09/10 03:12:45;;;;;;;28.63;17.35;;;13.70;99.90;;;;;;5087433;27;20031;-87
2023/09/10 03:15:11;;;;;;;22.48;16.30;;;13.70;99.90;;;;;;5097014;27;20027;-87
2023/09/10 03:17:37;;;;;;;19.45;16.17;;;13.70;99.90;;;;;;5096762;27;20196;-87
2023/09/10 03:20:04;;;;;;;22.95;16.52;;;13.70;99.90;;;;;;5099707;27;20662;-87
2023/09/10 03:23:02;;;;;;;20.45;15.30;;;13.70;99.90;;;;;;5100242;27;20011;-87
2023/09/10 03:25:27;;;;;;;26.30;16.40;;;13.60;99.90;;;;;;5087541;28;20023;-87
2023/09/10 03:27:53;;;;;;;20.20;15.32;;;13.60;99.90;;;;;;5107061;27;20462;-88
2023/09/10 03:30:20;;;;;;;20.80;15.88;;;13.50;99.90;;;;;;5084032;28;20084;-87
2023/09/10 03:32:50;;;;;;;24.33;16.35;;;13.50;99.90;;;;;;5099847;28;20031;-87
2023/09/10 03:35:16;;;;;;;20.45;16.45;;;13.50;99.90;;;;;;5107046;28;20031;-89
2023/09/10 03:37:41;;;;;;;22.30;16.75;;;13.40;99.90;;;;;;5102613;28;20036;-86
2023/09/10 03:40:08;;;;;;;19.67;16.00;;;13.40;99.90;;;;;;5103286;28;20031;-87
2023/09/10 03:42:34;;;;;;;20.52;16.52;;;13.40;99.90;;;;;;5088469;28;20020;-87
2023/09/10 03:45:00;;;;;;;20.58;16.45;;;13.40;99.90;;;;;;5093948;28;20030;-87
2023/09/10 03:47:29;;;;;;;24.08;17.80;;;13.40;99.90;;;;;;5083374;28;20027;-87
2023/09/10 03:49:56;;;;;;;23.45;16.58;;;13.40;99.90;;;;;;5094810;28;20023;-86
2023/09/10 03:52:21;;;;;;;21.42;16.33;;;13.40;99.90;;;;;;5084707;28;20039;-88
2023/09/10 03:54:48;;;;;;;23.02;16.73;;;13.30;99.90;;;;;;5082375;28;20372;-88
2023/09/10 03:57:14;;;;;;;25.20;17.80;;;13.20;99.90;;;;;;5096517;28;20032;-86
2023/09/10 03:59:41;;;;;;;23.35;16.73;;;13.20;99.90;;;;;;5096958;28;20027;-88
2023/09/10 04:02:07;;;;;;;24.02;16.17;;;13.20;99.90;;;;;;5098128;28;20031;-88
2023/09/10 04:04:33;;;;;;;23.38;16.15;;;13.10;99.90;;;;;;5095720;28;20023;-87
2023/09/10 04:06:59;;;;;;;20.40;15.93;;;13.10;99.90;;;;;;5099195;28;20077;-87
2023/09/10 04:09:25;;;;;;;24.85;17.88;;;13.10;99.90;;;;;;5089462;28;20471;-87
2023/09/10 04:11:51;;;;;;;23.00;17.13;;;13.10;99.90;;;;;;5099723;28;20043;-88
2023/09/10 04:14:16;;;;;;;21.20;16.75;;;13.00;99.90;;;;;;5102589;28;20061;-88
2023/09/10 04:16:42;;;;;;;23.58;16.00;;;13.00;99.90;;;;;;5099249;28;20031;-88
2023/09/10 04:19:08;;;;;;;23.33;17.67;;;13.00;99.90;;;;;;5106191;28;20062;-88
2023/09/10 04:21:34;;;;;;;22.75;17.45;;;12.90;99.90;;;;;;5082269;28;20422;-88
2023/09/10 04:24:00;;;;;;;26.52;17.10;;;13.00;99.90;;;;;;5093877;28;20130;-88
2023/09/10 04:26:26;;;;;;;24.08;17.58;;;13.00;99.90;;;;;;5084282;28;20052;-87
2023/09/10 04:28:52;;;;;;;19.25;16.38;;;12.90;99.90;;;;;;5088379;28;20476;-88
2023/09/10 04:31:18;;;;;;;26.35;17.85;;;12.90;99.90;;;;;;5097646;27;20066;-87
2023/09/10 04:33:44;;;;;;;21.95;17.20;;;12.90;99.90;;;;;;5098463;27;20771;-88
2023/09/10 04:36:11;;;;;;;22.45;16.90;;;12.90;99.90;;;;;;5100875;27;20031;-88
2023/09/10 04:38:37;;;;;;;24.02;16.55;;;12.90;99.90;;;;;;5098666;27;20023;-87
2023/09/10 04:41:03;;;;;;;22.42;16.30;;;12.90;99.90;;;;;;5102907;27;20015;-88
2023/09/10 04:43:29;;;;;;;23.20;17.58;;;12.80;99.90;;;;;;5092797;27;20028;-87
2023/09/10 04:45:56;;;;;;;22.10;16.83;;;12.80;99.90;;;;;;5103256;27;20019;-88
2023/09/10 04:48:21;;;;;;;21.50;17.27;;;12.80;99.90;;;;;;5093699;27;21040;-87
2023/09/10 04:50:47;;;;;;;23.77;17.30;;;12.80;99.90;;;;;;5102461;27;20114;-87
2023/09/10 04:53:14;;;;;;;22.13;17.02;;;12.80;99.90;;;;;;5094662;27;20019;-87
2023/09/10 04:55:40;;;;;;;21.08;15.82;;;12.80;99.90;;;;;;5102165;27;20058;-90
2023/09/10 04:58:05;;;;;;;21.75;16.85;;;12.70;99.90;;;;;;5103438;27;20035;-90
2023/09/10 05:00:31;;;;;;;23.15;17.25;;;12.70;99.90;;;;;;5089778;28;20099;-89
2023/09/10 05:02:57;;;;;;;22.15;17.30;;;12.80;99.90;;;;;;5099646;27;20117;-89
2023/09/10 05:05:23;;;;;;;22.77;17.25;;;12.80;99.90;;;;;;5100652;27;20096;-89
2023/09/10 05:07:50;;;;;;;23.95;16.65;;;12.80;99.90;;;;;;5088676;27;20015;-89
2023/09/10 05:10:16;;;;;;;23.13;16.35;;;12.80;99.90;;;;;;5102146;27;20097;-89
2023/09/10 05:12:42;;;;;;;26.52;17.25;;;12.80;99.90;;;;;;5100688;27;20034;-88
2023/09/10 05:15:11;;;;;;;21.38;17.05;;;12.90;99.90;;;;;;5103760;28;20085;-89
2023/09/10 05:17:38;;;;;;;26.80;17.33;;;12.90;99.90;;;;;;5101574;27;20076;-88
2023/09/10 05:20:05;;;;;;;24.75;17.98;;;13.00;99.90;;;;;;5104595;27;20516;-88
2023/09/10 05:22:31;;;;;;;21.55;15.98;;;13.00;99.90;;;;;;5092364;28;20039;-88
2023/09/10 05:24:57;;;;;;;23.38;17.17;;;13.10;99.90;;;;;;5105236;28;20035;-89
2023/09/10 05:27:22;;;;;;;20.20;16.15;;;13.10;99.90;;;;;;5092832;27;20039;-89
2023/09/10 05:29:48;;;;;;;23.95;16.35;;;13.20;99.90;;;;;;5089050;28;20555;-88
2023/09/10 05:32:14;;;;;;;23.42;17.27;;;13.30;99.90;;;;;;5095511;27;20068;-88
2023/09/10 05:34:39;;;;;;;21.55;16.40;;;13.40;99.90;;;;;;5109883;28;20142;-89
2023/09/10 05:37:05;;;;;;;29.30;17.38;;;13.40;99.90;;;;;;5107922;27;20023;-88
2023/09/10 05:39:31;;;;;;;21.33;16.33;;;13.50;99.90;;;;;;5108830;28;20024;-88
2023/09/10 05:41:57;;;;;;;23.55;16.73;;;13.60;99.90;;;;;;5091551;27;20010;-89
2023/09/10 05:44:22;;;;;;;20.38;16.83;;;13.70;99.90;;;;;;5101892;28;20031;-89
2023/09/10 05:46:50;;;;;;;21.27;16.05;;;13.70;99.90;;;;;;5091937;27;20058;-89
2023/09/10 05:49:16;;;;;;;19.30;16.13;;;13.80;99.90;;;;;;5103544;27;20015;-89
2023/09/10 05:51:41;;;;;;;22.05;16.65;;;13.90;99.90;;;;;;5090135;28;20027;-89
2023/09/10 05:54:07;;;;;;;20.50;16.05;;;14.00;99.90;;;;;;5087768;28;20024;-89
2023/09/10 05:56:33;;;;;;;20.38;16.00;;;14.10;99.90;;;;;;5108276;28;20058;-90
2023/09/10 05:58:59;;;;;;;19.80;15.02;;;14.20;99.90;;;;;;5104925;28;20034;-89
2023/09/10 06:01:25;;;;;;;21.50;16.40;;;14.20;99.90;;;;;;5090620;27;20180;-89
2023/09/10 06:03:51;;;;;;;25.45;16.55;;;14.30;99.90;;;;;;5104392;28;20383;-90
2023/09/10 06:06:16;;;;;;;20.25;15.93;;;14.50;99.90;;;;;;5092707;27;20015;-89
2023/09/10 06:08:42;;;;;;;20.98;15.10;;;14.60;99.90;;;;;;5094779;27;20059;-90
2023/09/10 06:11:08;;;;;;;18.42;15.18;;;14.70;99.90;;;;;;5098804;27;20024;-89
2023/09/10 06:13:35;;;;;;;18.33;14.20;;;14.80;99.90;;;;;;5105610;28;20067;-89
2023/09/10 06:16:01;;;;;;;21.80;13.65;;;15.00;99.90;;;;;;5087970;27;20019;-89
2023/09/10 06:18:27;;;;;;;20.33;14.43;;;15.10;99.90;;;;;;5099994;28;20031;-89
2023/09/10 06:20:53;;;;;;;19.48;13.68;;;15.30;99.90;;;;;;5088671;27;20034;-89
2023/09/10 06:23:19;;;;;;;15.88;12.88;;;15.40;99.90;;;;;;5102598;27;20023;-88
2023/09/10 06:25:45;;;;;;;15.45;12.45;;;15.50;99.90;;;;;;5110446;27;20031;-88
2023/09/10 06:28:12;;;;;;;21.00;14.07;;;15.70;99.90;;;;;;5092043;28;20036;-87
2023/09/10 06:30:38;;;;;;;15.75;11.57;;;15.80;99.90;;;;;;5107366;27;20377;-89
2023/09/10 06:33:04;;;;;;;16.83;12.75;;;16.00;99.90;;;;;;5102382;27;20027;-89
2023/09/10 06:35:30;;;;;;;17.52;12.90;;;16.10;99.90;;;;;;5095046;27;20043;-89
2023/09/10 06:37:56;;;;;;;17.58;12.68;;;16.30;99.90;;;;;;5096383;28;20031;-90
2023/09/10 06:40:22;;;;;;;16.33;11.52;;;16.40;99.90;;;;;;5108487;27;20037;-90
2023/09/10 06:42:49;;;;;;;16.58;11.32;;;16.60;99.90;;;;;;5088256;28;20038;-89
2023/09/10 06:45:29;;;;;;;17.02;11.00;;;16.80;99.90;;;;;;5088201;27;20030;-89
2023/09/10 06:47:55;;;;;;;13.45;10.43;;;17.00;99.90;;;;;;5095391;27;20102;-89
2023/09/10 06:50:33;;;;;;;12.27;9.75;;;17.30;99.90;;;;;;5089653;27;20049;-89
2023/09/10 06:52:58;;;;;;;15.25;11.02;;;17.50;99.90;;;;;;5113548;27;20084;-89
2023/09/10 06:55:24;;;;;;;11.63;10.00;;;17.70;99.90;;;;;;5100328;27;20027;-89
2023/09/10 06:57:50;;;;;;;13.68;9.55;;;18.00;99.90;;;;;;5084361;27;20028;-89
2023/09/10 07:00:16;;;;;;;14.88;9.00;;;18.20;99.90;;;;;;5109883;27;20108;-90
2023/09/10 07:02:41;;;;;;;13.38;9.20;;;18.40;99.90;;;;;;5095598;27;20067;-90
2023/09/10 07:05:07;;;;;;;12.00;8.60;;;18.70;99.90;;;;;;5102741;27;20385;-89
2023/09/10 07:07:33;;;;;;;10.60;8.27;;;18.90;99.90;;;;;;5085448;27;20039;-89
2023/09/10 07:09:59;;;;;;;10.77;7.85;;;19.10;99.90;;;;;;5088489;28;20028;-89
2023/09/10 07:12:24;;;;;;;9.75;7.30;;;19.30;99.90;;;;;;5095791;27;20135;-89
2023/09/10 07:14:50;;;;;;;13.00;7.90;;;19.50;99.90;;;;;;5107179;28;20034;-89
2023/09/10 07:17:16;;;;;;;11.70;7.32;;;19.70;99.90;;;;;;5104093;28;20421;-89
2023/09/10 07:19:41;;;;;;;13.10;8.40;;;19.80;99.90;;;;;;5091740;28;20111;-89
2023/09/10 07:22:07;;;;;;;13.93;8.07;;;20.00;99.90;;;;;;5105426;28;20031;-90
2023/09/10 07:24:33;;;;;;;14.90;7.97;;;20.10;99.90;;;;;;5090573;28;20386;-88
2023/09/10 07:27:01;;;;;;;12.10;7.65;;;20.30;99.90;;;;;;5113660;28;20028;-90
2023/09/10 07:29:27;;;;;;;11.70;8.23;;;20.50;99.90;;;;;;5090699;27;20085;-88
2023/09/10 07:31:53;;;;;;;10.95;7.45;;;20.70;99.90;;;;;;5100320;28;20035;-91
2023/09/10 07:34:20;;;;;;;10.90;8.50;;;20.80;99.90;;;;;;5095085;28;20026;-88
2023/09/10 07:36:46;;;;;;;10.80;7.55;;;21.00;99.90;;;;;;5102962;28;20094;-89
2023/09/10 07:39:12;;;;;;;10.73;7.93;;;21.10;99.90;;;;;;5114581;28;20031;-90
2023/09/10 07:41:38;;;;;;;7.97;6.60;;;21.20;99.90;;;;;;5106409;28;20019;-89
2023/09/10 07:44:04;;;;;;;14.95;8.30;;;21.30;99.90;;;;;;5099401;28;20070;-89
2023/09/10 07:46:30;;;;;;;10.45;7.65;;;21.40;99.90;;;;;;5106982;28;20058;-89
2023/09/10 07:48:56;;;;;;;9.32;7.47;;;21.60;99.90;;;;;;5110640;28;20383;-90
2023/09/10 07:51:22;;;;;;;10.43;8.18;;;21.60;99.90;;;;;;5104499;28;20032;-89
2023/09/10 07:53:47;;;;;;;13.65;7.53;;;21.70;99.90;;;;;;5109584;28;20023;-89
2023/09/10 07:56:13;;;;;;;11.00;7.68;;;21.80;99.90;;;;;;5111836;28;20019;-88
2023/09/10 07:58:39;;;;;;;17.20;8.98;;;21.90;99.90;;;;;;5086614;28;20027;-89
2023/09/10 08:01:04;;;;;;;10.38;8.00;;;22.00;99.90;;;;;;5095361;28;20526;-90
2023/09/10 08:03:30;;;;;;;16.60;7.93;;;22.10;99.90;;;;;;5088737;28;20023;-88
2023/09/10 08:05:56;;;;;;;9.80;7.13;;;22.20;99.90;;;;;;5102328;27;20027;-89
2023/09/10 08:08:22;;;;;;;10.93;7.75;;;22.30;99.90;;;;;;5096451;27;20080;-89
2023/09/10 08:10:47;;;;;;;11.15;8.10;;;22.40;99.90;;;;;;5107868;27;20050;-89
2023/09/10 08:13:13;;;;;;;8.90;7.15;;;22.50;99.90;;;;;;5116122;27;20034;-90
2023/09/10 08:15:43;;;;;;;10.82;7.93;;;22.50;99.90;;;;;;5090921;27;20482;-90
2023/09/10 08:18:11;;;;;;;11.05;8.30;;;22.60;99.90;;;;;;5092412;28;20035;-89
2023/09/10 08:20:38;;;;;;;12.05;7.28;;;22.70;99.90;;;;;;5092319;27;20035;-90
2023/09/10 08:23:04;;;;;;;10.05;7.32;;;22.70;99.90;;;;;;5094616;28;20030;-90
2023/09/10 08:25:30;;;;;;;15.40;7.95;;;22.70;99.90;;;;;;5110689;27;20110;-89
2023/09/10 08:27:56;;;;;;;12.65;7.57;;;22.80;99.90;;;;;;5095495;28;20033;-90
2023/09/10 08:30:22;;;;;;;8.95;7.78;;;22.90;99.90;;;;;;5109607;27;20024;-92
2023/09/10 08:32:49;;;;;;;16.90;7.68;;;22.90;99.90;;;;;;5120450;28;20044;-91
2023/09/10 08:35:20;;;;;;;9.65;8.02;;;23.00;99.90;;;;;;5121326;27;20061;-88
2023/09/10 08:37:45;;;;;;;12.82;7.35;;;23.00;99.90;;;;;;5103688;28;20474;-89
2023/09/10 08:40:12;;;;;;;9.82;7.75;;;23.10;99.90;;;;;;5105524;27;20034;-90
2023/09/10 08:42:46;;;;;;;11.63;7.82;;;23.20;99.90;;;;;;5093676;27;20053;-90
2023/09/10 08:45:13;;;;;;;10.10;7.00;;;23.40;99.90;;;;;;5108204;27;20144;-91
2023/09/10 08:47:43;;;;;;;9.75;7.38;;;24.40;99.90;;;;;;5094019;27;20118;-89
2023/09/10 08:50:11;;;;;;;8.75;6.25;;;26.60;99.90;;;;;;5109016;27;20474;-90
2023/09/10 08:52:48;;;;;;;7.50;6.13;;;28.40;99.90;;;;;;5087794;28;20106;-90
2023/09/10 08:55:14;;;;;;;9.50;6.35;;;29.90;99.90;;;;;;5105603;27;20056;-91
2023/09/10 08:57:41;;;;;;;10.27;6.40;;;31.40;99.90;;;;;;5088962;28;20043;-89
2023/09/10 09:00:12;;;;;;;11.13;6.45;;;32.40;99.90;;;;;;5091695;28;20028;-91
2023/09/10 09:02:45;;;;;;;8.27;6.30;;;33.00;97.40;;;;;;5107893;27;20451;-90
2023/09/10 09:05:12;;;;;;;10.40;7.53;;;33.00;96.40;;;;;;5091357;28;20115;-89
2023/09/10 09:07:51;;;;;;;10.40;6.63;;;32.90;95.40;;;;;;5107032;27;20034;-90
2023/09/10 09:10:27;;;;;;;7.75;6.22;;;33.50;94.00;;;;;;5090990;28;20513;-92
2023/09/10 09:12:59;;;;;;;7.53;6.13;;;33.00;93.50;;;;;;5107139;28;20030;-90
2023/09/10 09:15:25;;;;;;;7.22;5.95;;;32.80;93.60;;;;;;5104866;28;20028;-91
2023/09/10 09:17:55;;;;;;;8.85;6.60;;;32.10;92.40;;;;;;5092763;28;20026;-89
2023/09/10 09:20:21;;;;;;;7.30;5.93;;;31.80;93.40;;;;;;5105811;28;20027;-90
2023/09/10 09:22:50;;;;;;;9.95;6.13;;;31.20;93.70;;;;;;5111491;27;20054;-90
2023/09/10 09:25:16;;;;;;;7.25;5.88;;;30.60;95.00;;;;;;5106768;28;20024;-90
2023/09/10 09:27:43;;;;;;;9.02;6.18;;;30.40;94.00;;;;;;5105491;27;20038;-90
2023/09/10 09:30:11;;;;;;;6.93;5.57;;;30.20;95.10;;;;;;5108023;28;20027;-92
2023/09/10 09:32:37;;;;;;;11.55;6.47;;;30.10;94.30;;;;;;5108015;27;20027;-88
2023/09/10 09:35:13;;;;;;;7.88;6.55;;;29.90;94.60;;;;;;5110590;28;20034;-90
2023/09/10 09:37:40;;;;;;;9.70;5.95;;;29.70;95.70;;;;;;5090018;27;20019;-90
2023/09/10 09:40:09;;;;;;;9.32;6.32;;;29.40;95.10;;;;;;5102567;27;20024;-89
2023/09/10 09:42:38;;;;;;;10.05;6.85;;;29.10;95.40;;;;;;5094940;27;20122;-90
2023/09/10 09:45:05;;;;;;;12.23;6.80;;;29.10;95.20;;;;;;5099971;27;20051;-90
2023/09/10 09:47:31;;;;;;;8.98;5.85;;;29.50;94.80;;;;;;5102562;27;20467;-90
2023/09/10 09:49:57;;;;;;;12.40;6.32;;;30.10;94.80;;;;;;5106644;27;20072;-90
2023/09/10 09:52:24;;;;;;;8.60;6.10;;;30.40;94.80;;;;;;5106702;27;20042;-90
2023/09/10 09:54:50;;;;;;;10.45;6.00;;;31.10;94.10;;;;;;5105422;27;20541;-91
2023/09/10 09:57:16;;;;;;;7.18;6.35;;;31.60;92.40;;;;;;5091795;28;20047;-91
2023/09/10 09:59:43;;;;;;;9.32;6.38;;;32.20;92.00;;;;;;5125925;27;20091;-92
2023/09/10 10:02:14;;;;;;;8.52;6.13;;;32.70;92.30;;;;;;5118918;27;20027;-90
2023/09/10 10:04:42;;;;;;;7.38;6.13;;;33.40;91.50;;;;;;5118791;27;20035;-91
2023/09/10 10:07:17;;;;;;;8.73;5.93;;;33.80;90.70;;;;;;5132634;27;20027;-91
2023/09/10 10:09:53;;;;;;;10.27;5.38;;;33.70;90.70;;;;;;5108885;27;20442;-92
2023/09/10 10:12:20;;;;;;;12.20;5.97;;;34.20;88.20;;;;;;5141142;27;20019;-91
2023/09/10 10:17:29;;;;;;;8.73;5.40;;;34.70;86.80;;;;;;5921723;22;20171;-85
2023/09/10 10:19:58;;;;;;;10.88;5.97;;;34.50;86.90;;;;;;5438423;22;20022;-88
2023/09/10 10:22:24;;;;;;;5.97;5.35;;;33.80;84.40;;;;;;5026306;28;20069;-88
2023/09/10 10:24:56;;;;;;;9.20;5.18;;;34.00;85.90;;;;;;5031496;28;20034;-88
2023/09/10 10:30:16;;;;;;;8.35;5.05;;;34.30;84.40;;;;;;5291055;22;20301;-88
2023/09/10 10:32:45;;;;;;;6.30;5.50;;;34.40;83.80;;;;;;5017849;28;20044;-88
2023/09/10 10:35:11;;;;;;;5.65;5.07;;;34.70;83.20;;;;;;5013573;28;20033;-87
2023/09/10 10:37:56;;;;;;;9.40;5.82;;;34.80;82.70;;;;;;4993526;28;20030;-87
2023/09/10 10:40:30;;;;;;;11.23;5.70;;;35.00;82.60;;;;;;5009631;28;20488;-86
2023/09/10 10:43:26;;;;;;;6.47;5.75;;;33.30;82.90;;;;;;4994002;28;20486;-86
2023/09/10 10:46:03;;;;;;;5.65;5.15;;;31.50;89.50;;;;;;5013826;28;20551;-87
2023/09/10 10:48:33;;;;;;;11.73;6.18;;;31.00;87.50;;;;;;5013598;28;20068;-87
2023/09/10 10:51:01;;;;;;;6.60;5.97;;;30.80;87.00;;;;;;5012025;28;20037;-87
2023/09/10 10:53:27;;;;;;;9.23;6.25;;;30.00;91.40;;;;;;5020603;28;20295;-86
2023/09/10 10:56:03;;;;;;;7.40;6.70;;;29.20;91.90;;;;;;4998672;28;20061;-85
2023/09/10 10:58:30;;;;;;;13.68;6.57;;;29.00;92.40;;;;;;4998163;28;20039;-87
2023/09/10 11:00:58;;;;;;;10.25;6.63;;;28.50;93.10;;;;;;4998225;28;20017;-86
2023/09/10 11:03:25;;;;;;;11.30;6.40;;;28.20;94.20;;;;;;4994891;28;20026;-88
2023/09/10 11:06:06;;;;;;;9.40;6.60;;;28.40;94.10;;;;;;5025616;28;20030;-88
2023/09/10 11:08:36;;;;;;;9.15;6.93;;;28.30;93.50;;;;;;5021273;28;20044;-87
2023/09/10 11:11:04;;;;;;;10.13;5.80;;;28.90;94.50;;;;;;5005434;28;20045;-87
2023/09/10 11:13:32;;;;;;;7.20;6.05;;;29.80;92.80;;;;;;5018976;28;20040;-87
2023/09/10 11:16:04;;;;;;;8.55;6.22;;;30.70;91.80;;;;;;5023584;28;20030;-88
2023/09/10 11:18:36;;;;;;;8.88;6.20;;;30.90;91.20;;;;;;5026008;28;20057;-88
2023/09/10 11:21:06;;;;;;;10.70;6.28;;;31.00;90.60;;;;;;5024357;28;20469;-89
2023/09/10 11:24:06;;;;;;;9.50;6.40;;;31.30;91.60;;;;;;5023950;28;20054;-89
2023/09/10 11:26:32;;;;;;;6.63;5.65;;;31.90;90.00;;;;;;4969174;28;20124;-87
2023/09/10 11:28:59;;;;;;;8.57;6.35;;;32.40;89.30;;;;;;4998482;28;20072;-87
2023/09/10 11:31:45;;;;;;;10.50;5.78;;;32.70;87.50;;;;;;5019154;28;20044;-88
2023/09/10 11:36:49;;;;;;;10.88;6.38;;;32.40;86.20;;;;;;5016101;28;20064;-87
2023/09/10 11:39:19;;;;;;;6.75;5.68;;;32.10;87.10;;;;;;5001739;28;20083;-90
2023/09/10 11:41:50;;;;;;;8.37;5.87;;;32.80;88.00;;;;;;5006544;28;20037;-87
2023/09/10 11:44:16;;;;;;;7.15;5.85;;;33.60;85.80;;;;;;4995809;28;20030;-90
2023/09/10 11:46:42;;;;;;;8.68;6.10;;;33.90;85.90;;;;;;5013285;28;20509;-87
2023/09/10 11:49:08;;;;;;;11.57;5.88;;;33.50;85.60;;;;;;4999859;28;20488;-87
2023/09/10 11:51:47;;;;;;;13.93;6.35;;;33.00;83.60;;;;;;5024786;28;20056;-89
2023/09/10 11:54:16;;;;;;;9.45;6.03;;;31.80;83.90;;;;;;4991295;28;20026;-86
2023/09/10 11:56:56;;;;;;;6.63;5.63;;;31.90;85.00;;;;;;5013221;28;20220;-87
2023/09/10 11:59:30;;;;;;;8.93;5.40;;;32.40;86.80;;;;;;5017674;28;20029;-89
2023/09/10 12:01:56;;;;;;;7.28;6.10;;;32.70;84.80;;;;;;4999030;28;20035;-88
2023/09/10 12:04:32;;;;;;;11.88;6.75;;;32.80;86.90;;;;;;5006140;28;20116;-88
2023/09/10 12:07:02;;;;;;;6.85;6.07;;;32.30;88.60;;;;;;5018687;28;20014;-88
2023/09/10 12:09:31;;;;;;;6.78;5.95;;;31.60;87.80;;;;;;4993845;28;20121;-87
2023/09/10 12:12:19;;;;;;;9.70;6.22;;;30.70;90.60;;;;;;5020352;28;20029;-87
2023/09/10 12:14:45;;;;;;;10.30;6.53;;;30.60;90.70;;;;;;4997942;28;20049;-87
2023/09/10 12:17:11;;;;;;;7.85;6.20;;;29.70;91.40;;;;;;4996069;28;20030;-87
2023/09/10 12:19:38;;;;;;;14.73;6.40;;;29.20;92.00;;;;;;5012645;28;20034;-87
2023/09/10 12:22:09;;;;;;;13.20;6.40;;;29.00;91.30;;;;;;4999142;28;20398;-87
2023/09/10 12:24:41;;;;;;;9.98;6.40;;;29.30;91.20;;;;;;4992779;28;20084;-87
2023/09/10 12:27:09;;;;;;;7.32;6.10;;;29.70;91.60;;;;;;5007055;28;20030;-87
2023/09/10 12:29:35;;;;;;;10.93;6.90;;;29.50;90.50;;;;;;4993691;28;20058;-87
2023/09/10 12:32:02;;;;;;;7.78;6.53;;;29.50;91.40;;;;;;4989383;28;20132;-87
2023/09/10 12:34:31;;;;;;;;;;;29.30;91.30;;;;;;5006665;28;20033;-87
2023/09/10 12:36:58;;;;;;;12.60;6.28;;;29.10;91.00;;;;;;5008503;28;19917;-87
2023/09/10 12:39:27;;;;;;;7.43;6.65;;;29.00;91.70;;;;;;5000159;28;20137;-88
2023/09/10 12:42:03;;;;;;;8.77;6.38;;;29.30;92.00;;;;;;4989337;28;20034;-88
2023/09/10 12:44:30;;;;;;;12.30;6.78;;;29.50;91.90;;;;;;4987689;28;20472;-87
2023/09/10 12:46:57;;;;;;;7.45;6.07;;;29.50;91.80;;;;;;4997115;28;20040;-87
2023/09/10 12:49:23;;;;;;;7.93;5.65;;;29.80;91.30;;;;;;5014634;28;20038;-88